Ixonia, Wisconsin
Current Conditions -  °F | °C
As of 3:30 AM on Friday 28 Nov 2014 (Local Time) from KRYV Reporting Station
Overcast Overcast  
Wind Chill: 11°   Ceiling: 7000
Heat Index: 11°   Visibility: 10mi
Dew Point:   Wind: 3mph
Humidity: 85%   Direction: 120°ESE
Pressure: 30.31"   Gusts: NA
Location:  43.14°N, 88.6°W
Report Text: KRYV 280930Z AUTO 12003KT 10SM BKN070 OVC080 M11/M13 A3031 RMK AO2 T11151135
Loading
Personal Weather Stations






























Interactive Weather Map New forecast layout! Learn more

10-Day Weather Forecast

Advertisements
Track Severe Weather on mobile